sensor_id;sensor_type;location;lat;lon;timestamp;pressure;altitude;pressure_sealevel;temperature;humidity
43364;BME280;40636;52.424;-1.948;2023-03-22T00:02:24;98173.09;;;9.30;100.00
43364;BME280;40636;52.424;-1.948;2023-03-22T00:04:52;98179.13;;;9.32;100.00
43364;BME280;40636;52.424;-1.948;2023-03-22T00:07:18;98176.09;;;9.33;100.00
43364;BME280;40636;52.424;-1.948;2023-03-22T00:09:45;98172.78;;;9.36;100.00
43364;BME280;40636;52.424;-1.948;2023-03-22T00:12:12;98163.78;;;9.36;100.00
43364;BME280;40636;52.424;-1.948;2023-03-22T00:14:38;98159.38;;;9.35;100.00
43364;BME280;40636;52.424;-1.948;2023-03-22T00:17:05;98162.94;;;9.35;100.00
43364;BME280;40636;52.424;-1.948;2023-03-22T00:19:32;98141.88;;;9.36;100.00
43364;BME280;40636;52.424;-1.948;2023-03-22T00:21:59;98133.88;;;9.39;100.00
43364;BME280;40636;52.424;-1.948;2023-03-22T00:24:26;98125.66;;;9.39;100.00
43364;BME280;40636;52.424;-1.948;2023-03-22T00:26:53;98129.50;;;9.38;100.00
43364;BME280;40636;52.424;-1.948;2023-03-22T00:29:20;98133.06;;;9.39;100.00
43364;BME280;40636;52.424;-1.948;2023-03-22T00:31:49;98135.53;;;9.40;100.00
43364;BME280;40636;52.424;-1.948;2023-03-22T00:34:17;98111.09;;;9.44;100.00
43364;BME280;40636;52.424;-1.948;2023-03-22T00:36:44;98103.19;;;9.43;100.00
43364;BME280;40636;52.424;-1.948;2023-03-22T00:39:11;98107.84;;;9.42;100.00
43364;BME280;40636;52.424;-1.948;2023-03-22T00:41:38;98104.00;;;9.43;100.00
43364;BME280;40636;52.424;-1.948;2023-03-22T00:44:04;98099.06;;;9.45;100.00
43364;BME280;40636;52.424;-1.948;2023-03-22T00:46:31;98093.63;;;9.40;100.00
43364;BME280;40636;52.424;-1.948;2023-03-22T00:48:58;98082.66;;;9.45;100.00
43364;BME280;40636;52.424;-1.948;2023-03-22T00:51:25;98088.13;;;9.45;100.00
43364;BME280;40636;52.424;-1.948;2023-03-22T00:53:52;98085.66;;;9.44;100.00
43364;BME280;40636;52.424;-1.948;2023-03-22T00:56:20;98090.88;;;9.45;100.00
43364;BME280;40636;52.424;-1.948;2023-03-22T00:58:48;98094.13;;;9.47;100.00
43364;BME280;40636;52.424;-1.948;2023-03-22T01:01:15;98074.66;;;9.49;100.00
43364;BME280;40636;52.424;-1.948;2023-03-22T01:03:42;98064.31;;;9.46;100.00
43364;BME280;40636;52.424;-1.948;2023-03-22T01:06:09;98059.63;;;9.46;100.00
43364;BME280;40636;52.424;-1.948;2023-03-22T01:08:36;98072.78;;;9.44;100.00
43364;BME280;40636;52.424;-1.948;2023-03-22T01:11:06;98050.31;;;9.47;100.00
43364;BME280;40636;52.424;-1.948;2023-03-22T01:13:33;98049.75;;;9.50;100.00
43364;BME280;40636;52.424;-1.948;2023-03-22T01:16:06;98054.41;;;9.50;100.00
43364;BME280;40636;52.424;-1.948;2023-03-22T01:18:34;98049.19;;;9.48;100.00
43364;BME280;40636;52.424;-1.948;2023-03-22T01:21:01;98046.75;;;9.47;100.00
43364;BME280;40636;52.424;-1.948;2023-03-22T01:23:28;98015.22;;;9.49;100.00
43364;BME280;40636;52.424;-1.948;2023-03-22T01:25:55;98028.41;;;9.47;100.00
43364;BME280;40636;52.424;-1.948;2023-03-22T01:28:21;98022.94;;;9.47;100.00
43364;BME280;40636;52.424;-1.948;2023-03-22T01:30:52;98023.50;;;9.44;100.00
43364;BME280;40636;52.424;-1.948;2023-03-22T01:33:20;98015.22;;;9.49;100.00
43364;BME280;40636;52.424;-1.948;2023-03-22T01:35:47;98010.34;;;9.46;100.00
43364;BME280;40636;52.424;-1.948;2023-03-22T01:38:14;97996.94;;;9.45;100.00
43364;BME280;40636;52.424;-1.948;2023-03-22T01:40:40;97995.31;;;9.44;100.00
43364;BME280;40636;52.424;-1.948;2023-03-22T01:43:15;97989.31;;;9.42;100.00
43364;BME280;40636;52.424;-1.948;2023-03-22T01:45:47;97990.66;;;9.44;100.00
43364;BME280;40636;52.424;-1.948;2023-03-22T01:48:18;97978.66;;;9.40;100.00
43364;BME280;40636;52.424;-1.948;2023-03-22T01:53:24;97965.50;;;9.42;100.00
43364;BME280;40636;52.424;-1.948;2023-03-22T01:55:52;97967.13;;;9.43;100.00
43364;BME280;40636;52.424;-1.948;2023-03-22T01:58:21;97977.25;;;9.43;100.00
43364;BME280;40636;52.424;-1.948;2023-03-22T02:00:49;97944.16;;;9.39;100.00
43364;BME280;40636;52.424;-1.948;2023-03-22T02:03:24;97962.22;;;9.40;100.00
43364;BME280;40636;52.424;-1.948;2023-03-22T02:05:53;97964.44;;;9.38;100.00
43364;BME280;40636;52.424;-1.948;2023-03-22T02:08:20;97963.88;;;9.41;100.00
43364;BME280;40636;52.424;-1.948;2023-03-22T02:10:47;97941.97;;;9.41;100.00
43364;BME280;40636;52.424;-1.948;2023-03-22T02:28:02;97946.47;;;9.32;100.00
43364;BME280;40636;52.424;-1.948;2023-03-22T02:44:00;97931.97;;;9.31;100.00
43364;BME280;40636;52.424;-1.948;2023-03-22T02:46:40;97944.81;;;9.31;100.00
43364;BME280;40636;52.424;-1.948;2023-03-22T02:52:01;97930.56;;;9.34;100.00
43364;BME280;40636;52.424;-1.948;2023-03-22T02:57:21;97943.13;;;9.35;100.00
43364;BME280;40636;52.424;-1.948;2023-03-22T02:59:51;97937.94;;;9.33;100.00
43364;BME280;40636;52.424;-1.948;2023-03-22T03:02:20;97939.06;;;9.32;100.00
43364;BME280;40636;52.424;-1.948;2023-03-22T03:04:49;97937.66;;;9.35;100.00
43364;BME280;40636;52.424;-1.948;2023-03-22T03:07:26;97934.34;;;9.38;100.00
43364;BME280;40636;52.424;-1.948;2023-03-22T03:09:53;97919.59;;;9.34;100.00
43364;BME280;40636;52.424;-1.948;2023-03-22T03:12:22;97928.13;;;9.32;100.00
43364;BME280;40636;52.424;-1.948;2023-03-22T03:14:49;97923.44;;;9.33;100.00
43364;BME280;40636;52.424;-1.948;2023-03-22T03:17:27;97908.66;;;9.34;100.00
43364;BME280;40636;52.424;-1.948;2023-03-22T03:20:14;97913.31;;;9.33;100.00
43364;BME280;40636;52.424;-1.948;2023-03-22T03:25:36;97904.81;;;9.35;100.00
43364;BME280;40636;52.424;-1.948;2023-03-22T03:36:19;97857.22;;;9.31;100.00
43364;BME280;40636;52.424;-1.948;2023-03-22T03:38:49;97855.91;;;9.28;100.00
43364;BME280;40636;52.424;-1.948;2023-03-22T03:41:21;97861.38;;;9.28;100.00
43364;BME280;40636;52.424;-1.948;2023-03-22T03:43:50;97858.66;;;9.28;100.00
43364;BME280;40636;52.424;-1.948;2023-03-22T03:46:19;97837.88;;;9.27;100.00
43364;BME280;40636;52.424;-1.948;2023-03-22T03:48:47;97838.13;;;9.26;100.00
43364;BME280;40636;52.424;-1.948;2023-03-22T03:51:15;97843.53;;;9.31;100.00
43364;BME280;40636;52.424;-1.948;2023-03-22T03:53:42;97863.31;;;9.28;100.00
43364;BME280;40636;52.424;-1.948;2023-03-22T03:56:09;97846.06;;;9.27;100.00
43364;BME280;40636;52.424;-1.948;2023-03-22T03:58:35;97859.75;;;9.27;100.00
43364;BME280;40636;52.424;-1.948;2023-03-22T04:01:02;97845.84;;;9.24;100.00
43364;BME280;40636;52.424;-1.948;2023-03-22T04:03:30;97844.72;;;9.25;100.00
43364;BME280;40636;52.424;-1.948;2023-03-22T04:05:57;97867.16;;;9.27;100.00
43364;BME280;40636;52.424;-1.948;2023-03-22T04:08:25;97868.78;;;9.28;100.00
43364;BME280;40636;52.424;-1.948;2023-03-22T04:10:52;97867.44;;;9.25;100.00
43364;BME280;40636;52.424;-1.948;2023-03-22T04:13:19;97871.53;;;9.28;100.00
43364;BME280;40636;52.424;-1.948;2023-03-22T04:15:51;97877.22;;;9.31;100.00
43364;BME280;40636;52.424;-1.948;2023-03-22T04:18:18;97873.38;;;9.32;100.00
43364;BME280;40636;52.424;-1.948;2023-03-22T04:20:46;97871.44;;;9.33;100.00
43364;BME280;40636;52.424;-1.948;2023-03-22T04:23:15;97872.03;;;9.30;100.00
43364;BME280;40636;52.424;-1.948;2023-03-22T04:25:41;97871.44;;;9.33;100.00
43364;BME280;40636;52.424;-1.948;2023-03-22T04:28:09;97875.81;;;9.34;100.00
43364;BME280;40636;52.424;-1.948;2023-03-22T04:30:35;97880.47;;;9.33;100.00
43364;BME280;40636;52.424;-1.948;2023-03-22T04:33:03;97894.16;;;9.33;100.00
43364;BME280;40636;52.424;-1.948;2023-03-22T04:35:34;97899.13;;;9.31;100.00
43364;BME280;40636;52.424;-1.948;2023-03-22T04:38:00;97900.75;;;9.32;100.00
43364;BME280;40636;52.424;-1.948;2023-03-22T04:40:27;97896.91;;;9.33;100.00
43364;BME280;40636;52.424;-1.948;2023-03-22T04:42:57;97879.09;;;9.36;100.00
43364;BME280;40636;52.424;-1.948;2023-03-22T04:45:24;97894.66;;;9.35;100.00
43364;BME280;40636;52.424;-1.948;2023-03-22T04:47:54;97910.00;;;9.36;100.00
43364;BME280;40636;52.424;-1.948;2023-03-22T04:50:22;97900.97;;;9.36;100.00
43364;BME280;40636;52.424;-1.948;2023-03-22T04:52:48;97906.97;;;9.38;100.00
43364;BME280;40636;52.424;-1.948;2023-03-22T04:55:15;97923.91;;;9.40;100.00
43364;BME280;40636;52.424;-1.948;2023-03-22T04:57:43;97922.28;;;9.39;100.00
43364;BME280;40636;52.424;-1.948;2023-03-22T05:00:10;97934.34;;;9.38;100.00
43364;BME280;40636;52.424;-1.948;2023-03-22T05:02:37;97937.59;;;9.40;100.00
43364;BME280;40636;52.424;-1.948;2023-03-22T05:05:07;97934.28;;;9.43;100.00
43364;BME280;40636;52.424;-1.948;2023-03-22T05:07:33;97908.53;;;9.44;100.00
43364;BME280;40636;52.424;-1.948;2023-03-22T05:10:01;97920.06;;;9.41;100.00
43364;BME280;40636;52.424;-1.948;2023-03-22T05:12:28;97927.97;;;9.43;100.00
43364;BME280;40636;52.424;-1.948;2023-03-22T05:14:54;97963.88;;;9.41;100.00
43364;BME280;40636;52.424;-1.948;2023-03-22T05:17:21;97948.84;;;9.38;100.00
43364;BME280;40636;52.424;-1.948;2023-03-22T05:19:48;97966.88;;;9.39;100.00
43364;BME280;40636;52.424;-1.948;2023-03-22T05:22:14;97962.22;;;9.40;100.00
43364;BME280;40636;52.424;-1.948;2023-03-22T05:24:41;97958.16;;;9.37;100.00
43364;BME280;40636;52.424;-1.948;2023-03-22T05:27:08;97969.94;;;9.38;100.00
43364;BME280;40636;52.424;-1.948;2023-03-22T05:29:36;97976.78;;;9.35;100.00
43364;BME280;40636;52.424;-1.948;2023-03-22T05:32:03;97969.69;;;9.34;100.00
43364;BME280;40636;52.424;-1.948;2023-03-22T05:34:30;97976.84;;;9.30;100.00
43364;BME280;40636;52.424;-1.948;2023-03-22T05:37:02;97972.25;;;9.26;100.00
43364;BME280;40636;52.424;-1.948;2023-03-22T05:39:29;97976.09;;;9.25;100.00
43364;BME280;40636;52.424;-1.948;2023-03-22T05:41:55;97982.69;;;9.24;100.00
43364;BME280;40636;52.424;-1.948;2023-03-22T05:44:22;97987.59;;;9.22;100.00
43364;BME280;40636;52.424;-1.948;2023-03-22T05:46:49;97974.22;;;9.20;100.00
43364;BME280;40636;52.424;-1.948;2023-03-22T05:49:15;97986.59;;;9.18;100.00
43364;BME280;40636;52.424;-1.948;2023-03-22T05:51:42;97984.66;;;9.18;100.00
43364;BME280;40636;52.424;-1.948;2023-03-22T05:54:09;97991.50;;;9.15;100.00
43364;BME280;40636;52.424;-1.948;2023-03-22T05:56:36;97971.91;;;9.08;100.00
43364;BME280;40636;52.424;-1.948;2023-03-22T05:59:03;97973.59;;;8.99;100.00
43364;BME280;40636;52.424;-1.948;2023-03-22T06:01:30;97995.53;;;8.94;100.00
43364;BME280;40636;52.424;-1.948;2023-03-22T06:03:59;97992.00;;;8.94;100.00
43364;BME280;40636;52.424;-1.948;2023-03-22T06:06:26;97992.28;;;8.92;100.00
43364;BME280;40636;52.424;-1.948;2023-03-22T06:08:53;97997.28;;;8.85;100.00
43364;BME280;40636;52.424;-1.948;2023-03-22T06:11:32;97995.69;;;8.79;100.00
43364;BME280;40636;52.424;-1.948;2023-03-22T06:14:00;98000.34;;;8.78;100.00
43364;BME280;40636;52.424;-1.948;2023-03-22T06:16:27;98002.31;;;8.73;100.00
43364;BME280;40636;52.424;-1.948;2023-03-22T06:18:54;98019.28;;;8.70;100.00
43364;BME280;40636;52.424;-1.948;2023-03-22T06:21:21;98012.75;;;8.66;100.00
43364;BME280;40636;52.424;-1.948;2023-03-22T06:23:47;98010.59;;;8.62;100.00
43364;BME280;40636;52.424;-1.948;2023-03-22T06:26:14;98016.34;;;8.61;100.00
43364;BME280;40636;52.424;-1.948;2023-03-22T06:28:41;98018.56;;;8.59;100.00
43364;BME280;40636;52.424;-1.948;2023-03-22T06:31:08;98020.22;;;8.55;100.00
43364;BME280;40636;52.424;-1.948;2023-03-22T06:33:35;98027.63;;;8.54;100.00
43364;BME280;40636;52.424;-1.948;2023-03-22T06:36:02;98031.44;;;8.53;100.00
43364;BME280;40636;52.424;-1.948;2023-03-22T06:38:29;98031.72;;;8.52;100.00
43364;BME280;40636;52.424;-1.948;2023-03-22T06:40:56;98026.56;;;8.50;100.00
43364;BME280;40636;52.424;-1.948;2023-03-22T06:43:22;98026.59;;;8.45;100.00
43364;BME280;40636;52.424;-1.948;2023-03-22T06:45:49;98034.53;;;8.42;100.00
43364;BME280;40636;52.424;-1.948;2023-03-22T06:48:16;98045.22;;;8.38;100.00
43364;BME280;40636;52.424;-1.948;2023-03-22T06:50:43;98046.84;;;8.39;100.00
43364;BME280;40636;52.424;-1.948;2023-03-22T06:53:10;98050.38;;;8.34;100.00
43364;BME280;40636;52.424;-1.948;2023-03-22T06:55:37;98058.31;;;8.31;100.00
43364;BME280;40636;52.424;-1.948;2023-03-22T06:58:03;98059.72;;;8.28;100.00
43364;BME280;40636;52.424;-1.948;2023-03-22T07:00:30;98075.84;;;8.30;100.00
43364;BME280;40636;52.424;-1.948;2023-03-22T07:02:58;98081.59;;;8.28;100.00
43364;BME280;40636;52.424;-1.948;2023-03-22T07:05:24;98084.06;;;8.25;100.00
43364;BME280;40636;52.424;-1.948;2023-03-22T07:07:51;98091.97;;;8.26;100.00
43364;BME280;40636;52.424;-1.948;2023-03-22T07:10:18;98093.91;;;8.21;100.00
43364;BME280;40636;52.424;-1.948;2023-03-22T07:12:45;98104.28;;;8.24;100.00
43364;BME280;40636;52.424;-1.948;2023-03-22T07:15:12;98107.06;;;8.19;100.00
43364;BME280;40636;52.424;-1.948;2023-03-22T07:17:39;98113.88;;;8.16;100.00
43364;BME280;40636;52.424;-1.948;2023-03-22T07:20:06;98109.50;;;8.20;100.00
43364;BME280;40636;52.424;-1.948;2023-03-22T07:22:33;98125.88;;;8.20;100.00
43364;BME280;40636;52.424;-1.948;2023-03-22T07:25:00;98121.81;;;8.18;100.00
43364;BME280;40636;52.424;-1.948;2023-03-22T07:27:27;98122.38;;;8.14;100.00
43364;BME280;40636;52.424;-1.948;2023-03-22T07:29:53;98115.81;;;8.10;100.00
43364;BME280;40636;52.424;-1.948;2023-03-22T07:32:20;98121.00;;;8.12;100.00
43364;BME280;40636;52.424;-1.948;2023-03-22T07:34:47;98128.13;;;8.08;100.00
43364;BME280;40636;52.424;-1.948;2023-03-22T07:37:14;98106.56;;;8.06;100.00
43364;BME280;40636;52.424;-1.948;2023-03-22T07:39:40;98119.13;;;8.02;100.00
43364;BME280;40636;52.424;-1.948;2023-03-22T07:42:07;98121.34;;;8.00;100.00
43364;BME280;40636;52.424;-1.948;2023-03-22T07:44:34;98109.31;;;7.96;100.00
43364;BME280;40636;52.424;-1.948;2023-03-22T07:47:01;98111.47;;;7.99;100.00
43364;BME280;40636;52.424;-1.948;2023-03-22T07:49:29;98105.22;;;7.94;100.00
43364;BME280;40636;52.424;-1.948;2023-03-22T07:51:56;98114.53;;;7.93;100.00
43364;BME280;40636;52.424;-1.948;2023-03-22T07:54:23;98118.34;;;7.92;100.00
43364;BME280;40636;52.424;-1.948;2023-03-22T07:56:59;98109.88;;;7.93;100.00
43364;BME280;40636;52.424;-1.948;2023-03-22T07:59:26;98118.63;;;7.95;100.00
43364;BME280;40636;52.424;-1.948;2023-03-22T08:01:53;98119.13;;;8.02;100.00
43364;BME280;40636;52.424;-1.948;2023-03-22T08:04:20;98123.22;;;8.05;100.00
43364;BME280;40636;52.424;-1.948;2023-03-22T08:06:48;98125.66;;;8.06;100.00
43364;BME280;40636;52.424;-1.948;2023-03-22T08:09:16;98120.97;;;8.17;100.00
43364;BME280;40636;52.424;-1.948;2023-03-22T08:11:42;98113.84;;;8.31;100.00
43364;BME280;40636;52.424;-1.948;2023-03-22T08:14:09;98111.88;;;8.42;100.00
43364;BME280;40636;52.424;-1.948;2023-03-22T08:16:36;98124.38;;;8.53;100.00
43364;BME280;40636;52.424;-1.948;2023-03-22T08:19:04;98121.06;;;8.61;100.00
43364;BME280;40636;52.424;-1.948;2023-03-22T08:21:32;98119.94;;;8.68;100.00
43364;BME280;40636;52.424;-1.948;2023-03-22T08:23:58;98127.25;;;8.77;100.00
43364;BME280;40636;52.424;-1.948;2023-03-22T08:26:25;98126.69;;;8.80;100.00
43364;BME280;40636;52.424;-1.948;2023-03-22T08:28:52;98119.78;;;8.88;100.00
43364;BME280;40636;52.424;-1.948;2023-03-22T08:31:19;98120.81;;;8.97;100.00
43364;BME280;40636;52.424;-1.948;2023-03-22T08:33:46;98118.84;;;9.03;100.00
43364;BME280;40636;52.424;-1.948;2023-03-22T08:36:19;98124.53;;;9.11;100.00
43364;BME280;40636;52.424;-1.948;2023-03-22T08:38:45;98134.34;;;9.18;100.00
43364;BME280;40636;52.424;-1.948;2023-03-22T08:41:12;98138.13;;;9.27;100.00
43364;BME280;40636;52.424;-1.948;2023-03-22T08:43:41;98126.53;;;9.35;100.00
43364;BME280;40636;52.424;-1.948;2023-03-22T08:46:08;98122.13;;;9.39;100.00
43364;BME280;40636;52.424;-1.948;2023-03-22T08:48:35;98125.34;;;9.46;100.00
43364;BME280;40636;52.424;-1.948;2023-03-22T08:51:04;98133.50;;;9.51;100.00
43364;BME280;40636;52.424;-1.948;2023-03-22T08:53:31;98122.00;;;9.54;100.00
43364;BME280;40636;52.424;-1.948;2023-03-22T08:55:58;98132.34;;;9.57;100.00
43364;BME280;40636;52.424;-1.948;2023-03-22T08:58:27;98138.31;;;9.64;100.00
43364;BME280;40636;52.424;-1.948;2023-03-22T09:00:54;98137.69;;;9.73;100.00
43364;BME280;40636;52.424;-1.948;2023-03-22T09:03:21;98140.44;;;9.73;100.00
43364;BME280;40636;52.424;-1.948;2023-03-22T09:05:49;98132.66;;;9.80;100.00
43364;BME280;40636;52.424;-1.948;2023-03-22T09:08:16;98133.47;;;9.80;100.00
43364;BME280;40636;52.424;-1.948;2023-03-22T09:10:46;98137.03;;;9.81;100.00
43364;BME280;40636;52.424;-1.948;2023-03-22T09:13:17;98132.59;;;9.85;100.00
43364;BME280;40636;52.424;-1.948;2023-03-22T09:15:44;98133.91;;;9.93;100.00
43364;BME280;40636;52.424;-1.948;2023-03-22T09:18:11;98116.59;;;9.97;100.00
43364;BME280;40636;52.424;-1.948;2023-03-22T09:20:38;98121.50;;;10.00;100.00
43364;BME280;40636;52.424;-1.948;2023-03-22T09:23:06;98115.16;;;10.05;100.00
43364;BME280;40636;52.424;-1.948;2023-03-22T09:25:34;98128.47;;;10.11;100.00
43364;BME280;40636;52.424;-1.948;2023-03-22T09:28:02;98117.50;;;10.11;100.00
43364;BME280;40636;52.424;-1.948;2023-03-22T09:30:29;98119.00;;;10.04;100.00
43364;BME280;40636;52.424;-1.948;2023-03-22T09:32:56;98117.66;;;10.01;100.00
43364;BME280;40636;52.424;-1.948;2023-03-22T09:35:23;98120.31;;;10.06;100.00
43364;BME280;40636;52.424;-1.948;2023-03-22T09:37:50;98118.63;;;10.10;100.00
43364;BME280;40636;52.424;-1.948;2023-03-22T09:40:21;98114.13;;;10.20;100.00
43364;BME280;40636;52.424;-1.948;2023-03-22T09:42:53;98121.09;;;10.36;100.00
43364;BME280;40636;52.424;-1.948;2023-03-22T09:45:34;98113.16;;;10.34;100.00
43364;BME280;40636;52.424;-1.948;2023-03-22T09:48:12;98110.28;;;10.45;100.00
43364;BME280;40636;52.424;-1.948;2023-03-22T09:50:46;98107.81;;;10.43;100.00
43364;BME280;40636;52.424;-1.948;2023-03-22T09:53:15;98094.59;;;10.50;100.00
43364;BME280;40636;52.424;-1.948;2023-03-22T09:55:58;98102.66;;;10.60;100.00
43364;BME280;40636;52.424;-1.948;2023-03-22T10:04:12;98096.06;;;10.61;100.00
43364;BME280;40636;52.424;-1.948;2023-03-22T10:06:48;98110.06;;;10.60;100.00
43364;BME280;40636;52.424;-1.948;2023-03-22T10:09:28;98108.66;;;10.62;100.00
43364;BME280;40636;52.424;-1.948;2023-03-22T10:12:15;98121.84;;;10.60;100.00
43364;BME280;40636;52.424;-1.948;2023-03-22T10:14:55;98124.81;;;10.64;100.00
43364;BME280;40636;52.424;-1.948;2023-03-22T10:17:27;98118.38;;;10.74;100.00
43364;BME280;40636;52.424;-1.948;2023-03-22T10:20:03;98118.31;;;10.79;100.00
43364;BME280;40636;52.424;-1.948;2023-03-22T10:22:37;98123.63;;;10.89;100.00
43364;BME280;40636;52.424;-1.948;2023-03-22T10:25:10;98126.69;;;10.87;100.00
43364;BME280;40636;52.424;-1.948;2023-03-22T10:27:42;98122.50;;;10.71;100.00
43364;BME280;40636;52.424;-1.948;2023-03-22T10:30:36;98123.94;;;10.69;100.00
43364;BME280;40636;52.424;-1.948;2023-03-22T10:33:38;98126.38;;;10.70;100.00
43364;BME280;40636;52.424;-1.948;2023-03-22T10:36:12;98124.16;;;10.72;100.00
43364;BME280;40636;52.424;-1.948;2023-03-22T10:38:45;98126.59;;;10.92;100.00
43364;BME280;40636;52.424;-1.948;2023-03-22T10:41:16;98120.81;;;11.13;100.00
43364;BME280;40636;52.424;-1.948;2023-03-22T10:43:47;98120.47;;;11.33;100.00
43364;BME280;40636;52.424;-1.948;2023-03-22T10:46:19;98102.75;;;11.58;100.00
43364;BME280;40636;52.424;-1.948;2023-03-22T10:48:49;98107.94;;;11.74;100.00
43364;BME280;40636;52.424;-1.948;2023-03-22T10:51:25;98114.44;;;11.64;100.00
43364;BME280;40636;52.424;-1.948;2023-03-22T10:53:54;98115.16;;;11.69;100.00
43364;BME280;40636;52.424;-1.948;2023-03-22T10:56:21;98123.06;;;11.57;100.00
43364;BME280;40636;52.424;-1.948;2023-03-22T10:58:49;98117.28;;;11.59;100.00
43364;BME280;40636;52.424;-1.948;2023-03-22T11:01:33;98118.00;;;11.64;100.00
43364;BME280;40636;52.424;-1.948;2023-03-22T11:06:31;98116.44;;;12.18;100.00
43364;BME280;40636;52.424;-1.948;2023-03-22T11:09:15;98124.16;;;12.44;100.00
43364;BME280;40636;52.424;-1.948;2023-03-22T11:11:50;98113.78;;;12.41;100.00
43364;BME280;40636;52.424;-1.948;2023-03-22T11:16:59;98105.63;;;12.50;100.00
43364;BME280;40636;52.424;-1.948;2023-03-22T11:19:32;98105.41;;;12.46;100.00
43364;BME280;40636;52.424;-1.948;2023-03-22T11:22:05;98117.03;;;12.29;100.00
43364;BME280;40636;52.424;-1.948;2023-03-22T11:24:33;98133.53;;;12.29;100.00
43364;BME280;40636;52.424;-1.948;2023-03-22T11:29:46;98116.03;;;12.11;100.00
43364;BME280;40636;52.424;-1.948;2023-03-22T11:32:26;98117.84;;;12.16;100.00
43364;BME280;40636;52.424;-1.948;2023-03-22T11:37:51;98113.31;;;12.61;100.00
43364;BME280;40636;52.424;-1.948;2023-03-22T11:42:54;98112.19;;;12.62;100.00
43364;BME280;40636;52.424;-1.948;2023-03-22T11:45:31;98113.97;;;12.58;100.00
43364;BME280;40636;52.424;-1.948;2023-03-22T11:48:07;98107.03;;;12.47;100.00
43364;BME280;40636;52.424;-1.948;2023-03-22T11:50:38;98105.56;;;12.13;100.00
43364;BME280;40636;52.424;-1.948;2023-03-22T11:53:18;98109.72;;;11.97;100.00
43364;BME280;40636;52.424;-1.948;2023-03-22T11:55:50;98112.56;;;12.06;100.00
43364;BME280;40636;52.424;-1.948;2023-03-22T11:58:41;98107.66;;;12.16;100.00
43364;BME280;40636;52.424;-1.948;2023-03-22T12:01:13;98111.56;;;12.15;100.00
43364;BME280;40636;52.424;-1.948;2023-03-22T12:03:42;98101.34;;;12.30;100.00
43364;BME280;40636;52.424;-1.948;2023-03-22T12:06:30;98099.22;;;12.40;100.00
43364;BME280;40636;52.424;-1.948;2023-03-22T12:11:54;98092.69;;;12.36;100.00
43364;BME280;40636;52.424;-1.948;2023-03-22T12:17:05;98080.44;;;12.42;100.00
43364;BME280;40636;52.424;-1.948;2023-03-22T12:22:32;98075.47;;;12.44;100.00
43364;BME280;40636;52.424;-1.948;2023-03-22T12:24:59;98064.47;;;12.44;100.00
43364;BME280;40636;52.424;-1.948;2023-03-22T12:27:35;98062.41;;;12.50;100.00
43364;BME280;40636;52.424;-1.948;2023-03-22T12:30:10;98060.16;;;12.52;100.00
43364;BME280;40636;52.424;-1.948;2023-03-22T12:32:56;98054.84;;;12.56;100.00
43364;BME280;40636;52.424;-1.948;2023-03-22T12:35:28;98058.28;;;12.61;100.00
43364;BME280;40636;52.424;-1.948;2023-03-22T12:38:00;98046.28;;;12.57;100.00
43364;BME280;40636;52.424;-1.948;2023-03-22T12:40:35;98059.53;;;12.55;100.00
43364;BME280;40636;52.424;-1.948;2023-03-22T12:43:32;98056.22;;;12.67;100.00
43364;BME280;40636;52.424;-1.948;2023-03-22T12:46:03;98064.28;;;12.77;100.00
43364;BME280;40636;52.424;-1.948;2023-03-22T12:48:42;98052.00;;;12.83;100.00
43364;BME280;40636;52.424;-1.948;2023-03-22T12:51:13;98057.72;;;12.87;100.00
43364;BME280;40636;52.424;-1.948;2023-03-22T12:53:46;98055.06;;;12.82;100.00
43364;BME280;40636;52.424;-1.948;2023-03-22T12:56:16;98071.06;;;12.80;100.00
43364;BME280;40636;52.424;-1.948;2023-03-22T12:58:53;98063.88;;;12.70;100.00
43364;BME280;40636;52.424;-1.948;2023-03-22T13:03:52;98056.78;;;12.55;100.00
43364;BME280;40636;52.424;-1.948;2023-03-22T13:30:32;98051.06;;;13.10;100.00
43364;BME280;40636;52.424;-1.948;2023-03-22T13:32:59;98033.53;;;13.06;100.00
43364;BME280;40636;52.424;-1.948;2023-03-22T13:35:43;98038.84;;;13.03;100.00
43364;BME280;40636;52.424;-1.948;2023-03-22T13:38:33;98040.81;;;13.02;100.00
43364;BME280;40636;52.424;-1.948;2023-03-22T14:01:57;98007.41;;;12.95;100.00
43364;BME280;40636;52.424;-1.948;2023-03-22T14:04:35;98011.66;;;13.01;100.00
43364;BME280;40636;52.424;-1.948;2023-03-22T14:09:54;98011.41;;;12.89;100.00
43364;BME280;40636;52.424;-1.948;2023-03-22T14:13:01;97999.75;;;12.92;100.00
43364;BME280;40636;52.424;-1.948;2023-03-22T14:15:32;97985.19;;;12.91;100.00
43364;BME280;40636;52.424;-1.948;2023-03-22T14:21:00;97994.75;;;12.94;100.00
43364;BME280;40636;52.424;-1.948;2023-03-22T14:23:32;97987.50;;;12.98;100.00
43364;BME280;40636;52.424;-1.948;2023-03-22T14:26:11;97991.44;;;13.06;100.00
43364;BME280;40636;52.424;-1.948;2023-03-22T14:28:39;97985.47;;;13.12;100.00
43364;BME280;40636;52.424;-1.948;2023-03-22T14:31:11;97986.13;;;13.09;100.00
43364;BME280;40636;52.424;-1.948;2023-03-22T14:33:39;97970.72;;;13.08;100.00
43364;BME280;40636;52.424;-1.948;2023-03-22T14:36:12;97975.09;;;13.09;100.00
43364;BME280;40636;52.424;-1.948;2023-03-22T14:38:43;97976.09;;;13.13;100.00
43364;BME280;40636;52.424;-1.948;2023-03-22T14:41:11;97978.59;;;13.01;100.00
43364;BME280;40636;52.424;-1.948;2023-03-22T14:43:37;97956.97;;;13.08;100.00
43364;BME280;40636;52.424;-1.948;2023-03-22T14:46:19;97961.47;;;13.04;100.00
43364;BME280;40636;52.424;-1.948;2023-03-22T14:48:49;97972.47;;;13.04;100.00
43364;BME280;40636;52.424;-1.948;2023-03-22T14:51:54;97958.97;;;12.94;100.00
43364;BME280;40636;52.424;-1.948;2023-03-22T14:54:21;97948.06;;;12.89;100.00
43364;BME280;40636;52.424;-1.948;2023-03-22T14:56:57;97949.53;;;12.86;100.00
43364;BME280;40636;52.424;-1.948;2023-03-22T14:59:35;97948.72;;;12.86;100.00
43364;BME280;40636;52.424;-1.948;2023-03-22T15:04:45;97946.97;;;12.90;100.00
43364;BME280;40636;52.424;-1.948;2023-03-22T15:07:11;97932.56;;;12.93;100.00
43364;BME280;40636;52.424;-1.948;2023-03-22T15:09:37;97926.88;;;12.89;100.00
43364;BME280;40636;52.424;-1.948;2023-03-22T15:12:04;97926.06;;;12.89;100.00
43364;BME280;40636;52.424;-1.948;2023-03-22T15:14:33;97914.75;;;12.90;100.00